• Join FlightAware (Why Join?)
  • Login
  • US Flag 
12:29AM EST


 

Airport Tracker/Info


-or-


 

Live Flight TrackerFlight Track Log ✈ UAL4553 ✈ 21-Apr-2013 ✈ KRDU - KIAH

Flight Track Log - Related Links

Times and Time Zones

All times are in EDT time to prevent confusion due to time zone crossing. See the UAL4553 flight status page for this flight to view local times or setup timezone preferences in your user account.

Time Position Orientation Groundspeed Altitude Reporting Facility
EDT Latitude Longitude Course Direction KTS MPH feet Rate Location/Type
01:37PM 35.8967 -78.7767 270° West 157 181 1,200  Level Washington Center
01:38PM 35.9453 -78.7503 24° Northeast 196 226 3,300 2,361 Climbing Washington Center
01:39PM 36.0019 -78.7450 North 233 268 6,000 2,298 Climbing Washington Center
01:41PM 35.8373 -79.2434 263° West  Level FlightAware Approximate
01:41PM 35.9889 -78.8394 260° West 265 305 8,700  Level Washington Center
01:42PM 35.8269 -79.3583 262° West  Level FlightAware Approximate
01:42PM 35.9817 -78.9494 265° West 268 308 10,700  Level Washington Center
01:43PM 35.8167 -79.4732 270° West  Level FlightAware Approximate
01:43PM 35.9703 -79.0567 263° West 294 338 12,400  Level Washington Center
01:44PM 35.9592 -79.1539 262° West 322 371 14,300 1,667 Climbing Washington Center
01:46PM 35.9364 -79.3764 263° West 330 380 17,400 1,275 Climbing Atlanta Center
01:48PM 35.8986 -79.5939 258° West 341 392 19,400 1,000 Climbing Atlanta Center
01:49PM 35.8653 -79.7161 251° West 347 399 20,400 1,100 Climbing Atlanta Center
01:50PM 35.8281 -79.8461 251° West 353 406 21,600 1,150 Climbing Atlanta Center
01:51PM 35.7947 -79.9656 251° West 365 420 22,700 1,200 Climbing Atlanta Center
01:52PM 35.7672 -80.0872 254° West 371 427 24,000 1,400 Climbing Atlanta Center
01:53PM 35.7503 -80.2083 260° West 371 427 25,500 1,550 Climbing Atlanta Center
01:54PM 35.7350 -80.3267 261° West 358 412 27,100 1,600 Climbing Atlanta Center
01:55PM 35.7194 -80.4347 260° West 345 397 28,700 4,450 Climbing Atlanta Center
01:56PM 35.7039 -80.5378 259° West 324 373 36,000 1,100 Climbing Atlanta Center
01:57PM 35.7153 -80.6497 277° West 333 383 30,900 -1,800 Descending Atlanta Center
01:58PM 35.7203 -80.7622 273° West 327 376 32,400 1,400 Climbing Atlanta Center
01:59PM 35.7064 -80.8625 260° West 321 369 33,700 1,100 Climbing Atlanta Center
02:00PM 35.6903 -80.9628 259° West 310 357 34,600 950 Climbing Atlanta Center
02:01PM 35.6778 -81.0578 261° West 290 334 35,600 700 Climbing Atlanta Center
02:02PM 35.6572 -81.1558 256° West 290 334 36,000 200 Climbing Atlanta Center
02:03PM 35.6406 -81.2458 257° West 297 342 36,000  Level Atlanta Center
02:04PM 35.6286 -81.3586 263° West 311 358 36,000  Level Atlanta Center
02:05PM 35.6083 -81.4919 259° West 352 405 36,000  Level Atlanta Center
02:06PM 35.5897 -81.6050 259° West 352 405 36,000  Level Atlanta Center
02:07PM 35.5714 -81.7281 260° West 357 411 36,000  Level Atlanta Center
02:08PM 35.5506 -81.8486 258° West 357 411 36,000  Level Atlanta Center
02:09PM 35.5336 -81.9589 259° West 364 419 36,000  Level Atlanta Center
02:10PM 35.5128 -82.0869 259° West 377 434 36,000  Level Atlanta Center
02:11PM 35.4897 -82.2125 257° West 377 434 36,000  Level Atlanta Center
02:12PM 35.4708 -82.3378 260° West 377 434 36,000  Level Atlanta Center
02:13PM 35.4494 -82.4658 258° West 377 434 36,000  Level Atlanta Center
02:14PM 35.4258 -82.5886 257° West 380 437 36,000  Level Atlanta Center
02:15PM 35.4006 -82.7317 258° West 381 438 36,000  Level Atlanta Center
02:16PM 35.3789 -82.8569 258° West 381 438 36,000  Level Atlanta Center
02:17PM 35.3569 -82.9819 258° West 386 444 36,000  Level Atlanta Center
02:18PM 35.3350 -83.1094 258° West 378 435 36,000  Level Atlanta Center
02:19PM 35.3192 -83.2114 259° West 378 435 36,000  Level Atlanta Center
02:20PM 35.2950 -83.3492 258° West 378 435 36,000  Level Atlanta Center
02:21PM 35.2539 -83.4664 247° West 378 435 36,000  Level Atlanta Center
02:22PM 35.2042 -83.5786 242° Southwest 378 435 36,000  Level Atlanta Center
02:23PM 35.1544 -83.6908 242° Southwest 378 435 36,000  Level Atlanta Center
02:24PM 35.1067 -83.8000 242° Southwest 378 435 36,000  Level Atlanta Center
02:25PM 35.0547 -83.9144 241° Southwest 378 435 36,000  Level Atlanta Center
02:26PM 35.0067 -84.0261 242° Southwest 378 435 36,000  Level Atlanta Center
02:27PM 34.9547 -84.1400 241° Southwest 373 429 36,000  Level Atlanta Center
02:28PM 34.9044 -84.2592 243° Southwest 373 429 36,000  Level Atlanta Center
02:29PM 34.8542 -84.3678 241° Southwest 373 429 36,000  Level Atlanta Center
02:30PM 34.8056 -84.4814 243° Southwest 373 429 36,000  Level Atlanta Center
02:31PM 34.7553 -84.5900 241° Southwest 373 429 36,000  Level Atlanta Center
02:32PM 34.7025 -84.7008 240° Southwest 373 429 36,000  Level Atlanta Center
02:33PM 34.6539 -84.8114 242° Southwest 373 429 36,000  Level Atlanta Center
02:34PM 34.6031 -84.9244 241° Southwest 373 429 36,000  Level Atlanta Center
02:35PM 34.5519 -85.0350 241° Southwest 373 429 36,000  Level Atlanta Center
02:36PM 34.5011 -85.1453 241° Southwest 373 429 36,000  Level Atlanta Center
02:37PM 34.4478 -85.2581 240° Southwest 373 429 36,000  Level Atlanta Center
02:38PM 34.3944 -85.3681 240° Southwest 373 429 36,000  Level Atlanta Center
02:39PM 34.3472 -85.4806 243° Southwest 373 429 36,000  Level Atlanta Center
02:40PM 34.3003 -85.5803 240° Southwest 368 423 36,000  Level Atlanta Center
02:41PM 34.2464 -85.6922 240° Southwest 378 435 36,000  Level Atlanta Center
02:42PM 34.1992 -85.7994 242° Southwest 378 435 36,000  Level Atlanta Center
02:43PM 34.1433 -85.9061 238° Southwest 373 429 36,000  Level Atlanta Center
02:44PM 34.0894 -86.0178 240° Southwest 373 429 36,000  Level Atlanta Center
02:45PM 34.0375 -86.1269 240° Southwest 373 429 36,000  Level Atlanta Center
02:46PM 33.9853 -86.2408 241° Southwest 373 429 36,000  Level Atlanta Center
02:47PM 33.9333 -86.3522 241° Southwest 378 435 36,000  Level Atlanta Center
02:48PM 33.8789 -86.4608 239° Southwest 378 435 36,000  Level Atlanta Center
02:49PM 33.8267 -86.5719 241° Southwest 378 435 36,000  Level Atlanta Center
02:50PM 33.7722 -86.6828 239° Southwest 383 441 36,000  Level Atlanta Center
02:51PM 33.7194 -86.7961 241° Southwest 383 441 36,000  Level Atlanta Center
02:52PM 33.6647 -86.9092 240° Southwest 383 441 36,000  Level Atlanta Center
02:53PM 33.6200 -87.0372 247° West 388 447 36,000  Level Atlanta Center
02:54PM 33.5794 -87.1556 248° West 388 447 36,000  Level Atlanta Center
02:55PM 33.5389 -87.2761 248° West 388 447 36,000  Level Atlanta Center
02:56PM 33.4831 -87.4431 248° West 388 447 36,000  Level Memphis Center
02:57PM 33.4419 -87.5617 247° West 388 447 36,000  Level Memphis Center
02:58PM 33.4028 -87.6797 248° West 388 447 36,000  Level Memphis Center
02:59PM 33.3614 -87.7956 247° West 388 447 36,000  Level Memphis Center
03:00PM 33.3200 -87.9133 247° West 388 447 36,000  Level Memphis Center
03:01PM 33.2806 -88.0289 248° West 388 447 36,000  Level Memphis Center
03:02PM 33.2389 -88.1492 248° West 388 447 36,000  Level Memphis Center
03:03PM 33.1950 -88.2769 248° West 388 447 36,000  Level Memphis Center
03:04PM 33.1572 -88.3919 249° West 388 447 36,000  Level Memphis Center
03:05PM 33.1153 -88.5044 246° West 383 441 36,000  Level Memphis Center
03:06PM 33.0731 -88.6219 247° West 378 435 36,000  Level Memphis Center
03:07PM 33.0350 -88.7317 248° West 378 435 36,000 -200 Level Memphis Center
03:08PM 32.9944 -88.8439 247° West 378 435 35,600 -550 Descending Memphis Center
03:09PM 32.9519 -88.9561 246° West 378 435 34,900 -800 Descending Memphis Center
03:10PM 32.9136 -89.0706 248° West 378 435 34,000 -450 Descending Memphis Center
03:11PM 32.8731 -89.1775 246° West 378 435 34,000  Level Memphis Center
03:12PM 32.8342 -89.2867 247° West 373 429 34,000  Level Memphis Center
03:13PM 32.7956 -89.3908 246° West 362 417 34,000  Level Memphis Center
03:14PM 32.7544 -89.5000 246° West 362 417 34,000  Level Memphis Center
03:15PM 32.7156 -89.6092 247° West 362 417 34,000  Level Memphis Center
03:16PM 32.6744 -89.7231 247° West 362 417 34,000  Level Memphis Center
03:17PM 32.6311 -89.8344 245° Southwest 367 422 34,000  Level Memphis Center
03:18PM 32.5897 -89.9456 246° West 367 422 34,000  Level Memphis Center
03:19PM 32.5483 -90.0592 247° West 377 434 34,000  Level Memphis Center
03:20PM 32.5047 -90.1700 245° Southwest 377 434 34,000  Level Memphis Center
03:21PM 32.4506 -90.2761 239° Southwest 383 441 34,000  Level Memphis Center
03:22PM 32.3942 -90.3844 238° Southwest 390 449 34,000  Level Memphis Center
03:23PM 32.3378 -90.4925 238° Southwest 390 449 34,000  Level Memphis Center
03:25PM 32.2439 -90.6722 238° Southwest 383 441 34,000  Level Houston Center
03:26PM 32.1819 -90.7897 238° Southwest 384 442 34,000  Level Houston Center
03:27PM 32.1253 -90.8958 238° Southwest 384 442 34,000  Level Houston Center
03:28PM 32.0694 -91.0019 238° Southwest 383 441 34,000  Level Houston Center
03:29PM 32.0022 -91.1272 238° Southwest 378 435 34,000  Level Houston Center
03:30PM 31.9458 -91.2342 238° Southwest 384 442 34,000  Level Houston Center
03:31PM 31.8894 -91.3375 237° Southwest 377 434 34,000  Level Houston Center
03:32PM 31.8333 -91.4447 238° Southwest 383 441 34,000  Level Houston Center
03:33PM 31.7758 -91.5492 237° Southwest 382 440 34,000  Level Houston Center
03:34PM 31.7203 -91.6547 238° Southwest 382 440 34,000  Level Houston Center
03:35PM 31.6508 -91.7814 237° Southwest 383 441 34,000  Level Houston Center
03:37PM 31.5947 -91.8858 238° Southwest 380 437 34,000  Level Houston Center
03:38PM 31.5381 -91.9886 237° Southwest 375 432 34,000  Level Houston Center
03:39PM 31.4778 -92.0942 236° Southwest 368 423 34,000 -48 Level Houston Center
03:40PM 31.4236 -92.1956 238° Southwest 367 422 33,900  Descending Houston Center
03:41PM 31.3692 -92.2947 237° Southwest 363 418 34,000 48 Climbing Houston Center
03:42PM 31.3131 -92.3936 236° Southwest 365 420 34,000  Level Houston Center
03:43PM 31.2475 -92.5144 238° Southwest 368 423 34,000  Level Houston Center
03:44PM 31.1911 -92.6175 237° Southwest 374 430 34,000  Level Houston Center
03:45PM 31.1344 -92.7189 237° Southwest 373 429 34,000  Level Houston Center
03:46PM 31.0764 -92.8211 236° Southwest 377 434 34,000  Level Houston Center
03:47PM 31.0197 -92.9239 237° Southwest 377 434 34,000  Level Houston Center
03:48PM 30.9625 -93.0247 237° Southwest 375 432 34,000  Level Houston Center
03:49PM 30.8953 -93.1450 237° Southwest 371 427 34,000 -145 Level Houston Center
03:50PM 30.8392 -93.2458 237° Southwest 372 428 33,700 -1,065 Descending Houston Center
03:51PM 30.7803 -93.3483 236° Southwest 378 435 31,800 -1,935 Descending Houston Center
03:52PM 30.7228 -93.4517 237° Southwest 383 441 29,700 -2,032 Descending Houston Center
03:53PM 30.6622 -93.5569 236° Southwest 392 451 27,600 -2,226 Descending Houston Center
03:54PM 30.5892 -93.6839 236° Southwest 400 460 25,100 -2,226 Descending Houston Center
03:55PM 30.5289 -93.7906 237° Southwest 401 461 23,000 -2,016 Descending Houston Center
03:56PM 30.4686 -93.8931 236° Southwest 391 450 20,900 -2,016 Descending Houston Center
03:57PM 30.4108 -93.9956 237° Southwest 386 444 18,800 -2,073 Descending Houston Center
03:58PM 30.3542 -94.0944 236° Southwest 380 437 17,100 -2,035 Descending Houston Center
03:59PM 30.2894 -94.2025 235° Southwest 362 417 14,900 -2,015 Descending Houston Center
04:00PM 30.2303 -94.3047 236° Southwest 319 367 12,600 -1,415 Descending Houston Center
04:01PM 30.1942 -94.3867 243° Southwest 315 362 12,000 -718 Descending Houston Center
04:02PM 30.1767 -94.4858 258° West 312 359 11,200 -927 Descending Houston Center
04:03PM 30.1586 -94.5825 258° West 307 353 10,100 -558 Descending Houston Center
04:04PM 30.1422 -94.6933 260° West 306 352 10,000 -49 Descending Houston Center
04:05PM 30.1256 -94.7825 258° West 305 351 10,000 -410 Level Houston Center
04:06PM 30.1106 -94.8667 258° West 269 310 9,200 -927 Descending Houston Center
04:07PM 30.1056 -94.9494 266° West 264 304 8,100 -947 Descending Houston Center
04:08PM 30.1058 -94.9614 272° West 265 305 8,000 -968 Descending Houston Center
04:08PM 30.1058 -95.0411 270° West 263 303 7,100 -968 Descending Houston Center
04:09PM 30.1061 -95.0467 273° West 266 306 7,000 -984 Descending Houston Center
04:09PM 30.1053 -95.1258 269° West 261 300 6,100 -968 Descending Houston Center
04:10PM 30.1064 -95.1467 274° West 263 303 6,000 -98 Descending Houston Center
04:10PM 30.1069 -95.2100 271° West 266 306 6,000  Level Houston Center
04:11PM 30.1078 -95.2325 272° West 267 307 6,000  Level Houston Center
04:11PM 30.1072 -95.3042 270° West 271 312 6,000  Level Houston Center
04:12PM 30.1069 -95.3181 269° West 268 308 6,000 -304 Level Houston Center
04:13PM 30.1042 -95.4019 268° West 266 306 5,600 -1,018 Descending Houston Center
04:14PM 30.0742 -95.4725 244° Southwest 248 285 4,100 -1,800 Descending Houston Center